Time;durP1;ratioP1;P1;durP2;ratioP2;P2;SDS_P1;SDS_P2;PMS_P1;PMS_P2;Temp;Humidity;BMP_temperature;BMP_pressure;BME280_temperature;BME280_humidity;BME280_pressure;Samples;Min_cycle;Max_cycle;Signal;HPM_P1;HPM_P2
2022/08/27 00:01:16;;;;;;;;;;;;;;;19.15;61.93;101152.63;4421889;32;20045;-68
2022/08/27 00:03:43;;;;;;;;;;;;;;;19.19;61.67;101148.28;4422621;32;19988;-68
2022/08/27 00:06:10;;;;;;;;;;;;;;;19.24;61.51;101146.84;4421828;32;20242;-68
2022/08/27 00:08:36;;;;;;;;;;;;;;;19.22;61.48;101146.53;4419239;32;19957;-68
2022/08/27 00:11:01;;;;;;;;;;;;;;;19.12;61.52;101150.75;4419868;32;20364;-68
2022/08/27 00:13:27;;;;;;;;;;;;;;;19.17;61.56;101141.47;4423228;32;19949;-68
2022/08/27 00:15:53;;;;;;;;;;;;;;;19.14;61.86;101148.97;4420886;32;20336;-68
2022/08/27 00:18:19;;;;;;;;;;;;;;;19.20;61.69;101146.22;4418830;32;20343;-68
2022/08/27 00:20:45;;;;;;;;;;;;;;;19.20;61.90;101149.06;4420589;32;19993;-68
2022/08/27 00:23:11;;;;;;;;;;;;;;;19.17;61.72;101141.47;4420253;32;20040;-68
2022/08/27 00:25:36;;;;;;;;;;;;;;;19.24;61.66;101141.91;4422094;32;19969;-68
2022/08/27 00:28:02;;;;;;;;;;;;;;;19.24;61.56;101139.03;4419970;32;21032;-68
2022/08/27 00:30:28;;;;;;;;;;;;;;;19.28;61.36;101144.59;4420830;32;19993;-68
2022/08/27 00:32:55;;;;;;;;;;;;;;;19.31;61.13;101140.78;4420582;32;20013;-68
2022/08/27 00:35:21;;;;;;;;;;;;;;;19.36;60.83;101140.09;4421195;32;20445;-68
2022/08/27 00:37:46;;;;;;;;;;;;;;;19.34;61.04;101139.78;4421214;32;20074;-68
2022/08/27 00:40:14;;;;;;;;;;;;;;;19.37;60.82;101142.47;4419864;32;20373;-68
2022/08/27 00:42:41;;;;;;;;;;;;;;;19.27;61.20;101140.19;4422418;32;20009;-68
2022/08/27 00:45:07;;;;;;;;;;;;;;;19.21;61.55;101137.16;4421880;32;20306;-68
2022/08/27 00:47:35;;;;;;;;;;;;;;;19.24;61.46;101139.03;4422823;32;20237;-68
2022/08/27 00:50:04;;;;;;;;;;;;;;;19.20;61.54;101141.31;4424351;32;20007;-68
2022/08/27 00:52:32;;;;;;;;;;;;;;;19.14;61.67;101145.31;4423317;32;20113;-68
2022/08/27 00:55:01;;;;;;;;;;;;;;;19.09;61.99;101131.75;4420791;32;20008;-68
2022/08/27 00:57:28;;;;;;;;;;;;;;;19.17;61.83;101142.28;4424195;32;19963;-68
2022/08/27 00:59:54;;;;;;;;;;;;;;;19.21;61.56;101139.25;4422700;32;20053;-68
2022/08/27 01:02:20;;;;;;;;;;;;;;;19.25;61.14;101132.06;4423943;32;19984;-68
2022/08/27 01:04:50;;;;;;;;;;;;;;;19.23;61.58;101130.97;4422959;32;20450;-68
2022/08/27 01:07:15;;;;;;;;;;;;;;;19.28;61.49;101136.03;4423832;32;20352;-68
2022/08/27 01:09:42;;;;;;;;;;;;;;;19.26;61.53;101130.00;4421810;32;20032;-68
2022/08/27 01:12:09;;;;;;;;;;;;;;;19.28;61.47;101136.84;4422828;32;20389;-68
2022/08/27 01:14:36;;;;;;;;;;;;;;;19.36;61.29;101134.41;4424550;32;20040;-68
2022/08/27 01:17:02;;;;;;;;;;;;;;;19.37;61.16;101141.66;4422153;32;19968;-68
2022/08/27 01:19:32;;;;;;;;;;;;;;;19.40;61.01;101140.69;4423836;32;19989;-68
2022/08/27 01:22:06;;;;;;;;;;;;;;;19.48;60.86;101139.00;4423077;32;19992;-69
2022/08/27 01:24:49;;;;;;;;;;;;;;;19.43;60.70;101136.84;4423172;32;19997;-68
2022/08/27 01:27:17;;;;;;;;;;;;;;;19.47;60.71;101126.81;4422488;32;20069;-68
2022/08/27 01:29:44;;;;;;;;;;;;;;;19.40;61.14;101129.28;4419862;32;19972;-68
2022/08/27 01:32:11;;;;;;;;;;;;;;;19.44;60.83;101118.44;4424928;32;20323;-68
2022/08/27 01:34:37;;;;;;;;;;;;;;;19.41;61.28;101127.97;4425222;32;19961;-69
2022/08/27 01:37:04;;;;;;;;;;;;;;;19.34;61.59;101123.47;4424671;32;19992;-68
2022/08/27 01:39:30;;;;;;;;;;;;;;;19.31;61.54;101126.50;4422663;32;19953;-68
2022/08/27 01:42:01;;;;;;;;;;;;;;;19.29;61.85;101120.47;4422790;32;19996;-68
2022/08/27 01:44:27;;;;;;;;;;;;;;;19.24;61.61;101118.31;4421464;32;19954;-68
2022/08/27 01:46:52;;;;;;;;;;;;;;;19.18;61.46;101128.81;4422483;32;19968;-68
2022/08/27 01:49:18;;;;;;;;;;;;;;;19.11;61.65;101129.16;4422901;32;20540;-68
2022/08/27 01:51:43;;;;;;;;;;;;;;;19.05;62.04;101122.59;4420568;32;20756;-68
2022/08/27 01:54:09;;;;;;;;;;;;;;;18.95;62.47;101126.78;4420848;32;20580;-68
2022/08/27 01:56:35;;;;;;;;;;;;;;;18.89;62.30;101125.88;4424975;32;19964;-68
2022/08/27 01:59:00;;;;;;;;;;;;;;;18.82;62.61;101124.19;4422921;32;20361;-68
2022/08/27 02:01:26;;;;;;;;;;;;;;;18.74;63.25;101128.66;4423871;32;19957;-66
2022/08/27 02:03:51;;;;;;;;;;;;;;;18.72;63.25;101124.72;4426941;32;19997;-65
2022/08/27 02:06:16;;;;;;;;;;;;;;;18.60;63.77;101123.72;4426135;32;20048;-68
2022/08/27 02:08:42;;;;;;;;;;;;;;;18.55;64.19;101120.72;4426906;32;19960;-69
2022/08/27 02:11:07;;;;;;;;;;;;;;;18.44;64.56;101126.94;4425343;32;19987;-64
2022/08/27 02:13:33;;;;;;;;;;;;;;;18.37;64.95;101112.25;4425390;32;20033;-66
2022/08/27 02:15:59;;;;;;;;;;;;;;;18.28;64.99;101109.47;4426538;32;20015;-66
2022/08/27 02:18:24;;;;;;;;;;;;;;;18.23;65.35;101119.44;4427607;32;20017;-66
2022/08/27 02:20:50;;;;;;;;;;;;;;;18.13;65.81;101117.12;4426868;32;20027;-69
2022/08/27 02:23:16;;;;;;;;;;;;;;;18.07;66.01;101113.34;4429109;32;20005;-67
2022/08/27 02:25:42;;;;;;;;;;;;;;;18.01;66.04;101115.28;4427006;32;19981;-66
2022/08/27 02:28:08;;;;;;;;;;;;;;;18.02;66.14;101117.66;4425870;32;20170;-67
2022/08/27 02:30:34;;;;;;;;;;;;;;;17.92;66.55;101122.56;4425165;32;20282;-64
2022/08/27 02:33:01;;;;;;;;;;;;;;;17.89;66.79;101122.75;4427091;32;19994;-65
2022/08/27 02:35:28;;;;;;;;;;;;;;;17.96;66.39;101115.91;4427958;32;19953;-65
2022/08/27 02:37:53;;;;;;;;;;;;;;;17.96;66.18;101115.91;4423239;32;19945;-66
2022/08/27 02:40:20;;;;;;;;;;;;;;;17.89;66.48;101108.53;4425091;32;20348;-66
2022/08/27 02:42:45;;;;;;;;;;;;;;;17.92;66.58;101115.31;4426754;32;20007;-65
2022/08/27 02:45:12;;;;;;;;;;;;;;;17.92;66.70;101118.16;4427126;32;20305;-65
2022/08/27 02:47:38;;;;;;;;;;;;;;;17.92;66.62;101112.47;4426973;32;20000;-66
2022/08/27 02:50:04;;;;;;;;;;;;;;;17.96;66.48;101107.38;4414505;32;19993;-64
2022/08/27 02:52:30;;;;;;;;;;;;;;;17.86;66.77;101101.72;4425431;32;19993;-65
2022/08/27 02:54:56;;;;;;;;;;;;;;;17.85;66.80;101103.00;4426134;32;19963;-68
2022/08/27 02:57:22;;;;;;;;;;;;;;;17.84;67.03;101101.41;4425151;32;19987;-66
2022/08/27 02:59:48;;;;;;;;;;;;;;;17.77;67.22;101098.13;4410669;32;20472;-68
2022/08/27 03:02:14;;;;;;;;;;;;;;;17.74;67.37;101099.84;4424898;32;19997;-67
2022/08/27 03:04:40;;;;;;;;;;;;;;;17.77;67.40;101106.66;4425740;32;20663;-68
2022/08/27 03:07:06;;;;;;;;;;;;;;;17.74;67.49;101097.00;4425057;32;19953;-65
2022/08/27 03:09:32;;;;;;;;;;;;;;;17.74;67.59;101102.69;4424378;32;19964;-69
2022/08/27 03:11:57;;;;;;;;;;;;;;;17.65;67.59;101104.81;4427159;32;19992;-65
2022/08/27 03:14:23;;;;;;;;;;;;;;;17.74;67.24;101114.09;4424843;32;20354;-66
2022/08/27 03:16:48;;;;;;;;;;;;;;;17.72;66.90;101115.84;4425021;32;19964;-65
2022/08/27 03:19:14;;;;;;;;;;;;;;;17.73;66.87;101115.37;4423817;32;20036;-65
2022/08/27 03:21:39;;;;;;;;;;;;;;;17.71;66.47;101114.28;4425637;32;20130;-65
2022/08/27 03:24:05;;;;;;;;;;;;;;;17.65;67.12;101114.09;4426379;32;20638;-67
2022/08/27 03:26:31;;;;;;;;;;;;;;;17.71;66.96;101119.97;4425967;32;19961;-68
2022/08/27 03:28:58;;;;;;;;;;;;;;;17.71;66.83;101112.19;4425521;32;19996;-67
2022/08/27 03:31:25;;;;;;;;;;;;;;;17.77;66.38;101123.75;4424685;32;19977;-67
2022/08/27 03:33:52;;;;;;;;;;;;;;;17.84;66.00;101124.19;4429199;32;19992;-68
2022/08/27 03:36:17;;;;;;;;;;;;;;;17.79;66.49;101112.66;4427060;32;20003;-65
2022/08/27 03:38:43;;;;;;;;;;;;;;;17.79;66.51;101112.66;4425187;32;19985;-69
2022/08/27 03:41:08;;;;;;;;;;;;;;;17.82;66.34;101120.22;4423857;32;19965;-69
2022/08/27 03:43:34;;;;;;;;;;;;;;;17.90;65.97;101121.47;4428092;32;20036;-65
2022/08/27 03:46:00;;;;;;;;;;;;;;;17.89;65.74;101115.00;4415043;32;20376;-67
2022/08/27 03:48:27;;;;;;;;;;;;;;;18.03;65.28;101118.41;4424512;32;19957;-66
2022/08/27 03:50:52;;;;;;;;;;;;;;;18.13;64.79;101126.44;4426007;32;20000;-65
2022/08/27 03:53:19;;;;;;;;;;;;;;;18.19;64.28;101124.50;4424767;32;20007;-65
2022/08/27 03:55:46;;;;;;;;;;;;;;;18.20;63.57;101128.16;4425311;32;20470;-65
2022/08/27 03:58:12;;;;;;;;;;;;;;;18.19;63.58;101126.59;4426434;32;19953;-64
2022/08/27 04:00:39;;;;;;;;;;;;;;;18.20;63.39;101122.47;4425599;32;19980;-67
2022/08/27 04:03:05;;;;;;;;;;;;;;;18.12;63.06;101127.72;4424727;32;19997;-64
2022/08/27 04:05:31;;;;;;;;;;;;;;;18.10;63.26;101127.41;4424156;32;19968;-65
2022/08/27 04:07:57;;;;;;;;;;;;;;;18.12;63.13;101133.41;4425862;32;20036;-67
2022/08/27 04:10:22;;;;;;;;;;;;;;;18.13;63.04;101129.28;4424567;32;20026;-65
2022/08/27 04:12:48;;;;;;;;;;;;;;;18.08;63.24;101124.25;4425236;32;19988;-65
2022/08/27 04:15:14;;;;;;;;;;;;;;;18.14;63.13;101124.38;4426682;32;19965;-66
2022/08/27 04:17:39;;;;;;;;;;;;;;;18.19;62.42;101123.75;4424808;32;20094;-67
2022/08/27 04:20:06;;;;;;;;;;;;;;;18.15;62.87;101129.59;4426899;32;20081;-67
2022/08/27 04:22:32;;;;;;;;;;;;;;;18.21;62.74;101124.03;4424741;32;20494;-65
2022/08/27 04:24:58;;;;;;;;;;;;;;;18.16;62.67;101113.31;4430493;32;19966;-64
2022/08/27 04:27:25;;;;;;;;;;;;;;;18.23;63.06;101113.75;4428086;32;19989;-65
2022/08/27 04:29:59;;;;;;;;;;;;;;;18.28;62.91;101110.22;4426306;32;19961;-64
2022/08/27 04:32:25;;;;;;;;;;;;;;;18.31;62.96;101111.34;4427338;32;20741;-65
2022/08/27 04:34:53;;;;;;;;;;;;;;;18.38;62.70;101111.00;4430206;32;19964;-67
2022/08/27 04:37:18;;;;;;;;;;;;;;;18.40;62.79;101114.16;4426169;32;20216;-65
2022/08/27 04:39:44;;;;;;;;;;;;;;;18.36;62.62;101105.75;4426726;32;20012;-64
2022/08/27 04:42:10;;;;;;;;;;;;;;;18.19;63.12;101113.12;4426352;32;19961;-67
2022/08/27 04:44:35;;;;;;;;;;;;;;;18.03;63.61;101113.50;4427939;32;20395;-66
2022/08/27 04:47:03;;;;;;;;;;;;;;;18.00;63.90;101119.38;4427122;32;19957;-66
2022/08/27 04:49:29;;;;;;;;;;;;;;;17.92;64.37;101116.88;4427781;32;20390;-65
2022/08/27 04:51:55;;;;;;;;;;;;;;;17.86;64.73;101124.50;4428662;32;20003;-65
2022/08/27 04:54:21;;;;;;;;;;;;;;;17.73;65.43;101120.25;4428284;32;19958;-66
2022/08/27 04:56:47;;;;;;;;;;;;;;;17.70;65.43;101119.16;4428370;32;19989;-65
2022/08/27 04:59:12;;;;;;;;;;;;;;;17.64;65.72;101120.28;4429299;32;19953;-65
2022/08/27 05:01:38;;;;;;;;;;;;;;;17.61;65.81;101118.37;4427849;32;20699;-67
2022/08/27 05:04:04;;;;;;;;;;;;;;;17.59;65.81;101118.09;4427734;32;20412;-67
2022/08/27 05:06:30;;;;;;;;;;;;;;;17.55;65.99;101111.78;4428696;32;19993;-66
2022/08/27 05:08:56;;;;;;;;;;;;;;;17.52;66.26;101116.34;4429034;32;20058;-68
2022/08/27 05:11:22;;;;;;;;;;;;;;;17.39;66.79;101114.94;4426145;32;19957;-64
2022/08/27 05:13:48;;;;;;;;;;;;;;;17.37;66.96;101106.88;4429668;32;19972;-64
2022/08/27 05:16:17;;;;;;;;;;;;;;;17.31;67.30;101117.31;4426704;32;19953;-64
2022/08/27 05:18:43;;;;;;;;;;;;;;;17.32;67.49;101118.09;4425484;32;19986;-64
2022/08/27 05:21:14;;;;;;;;;;;;;;;17.24;68.07;101125.37;4426054;32;20409;-65
2022/08/27 05:23:40;;;;;;;;;;;;;;;17.24;68.21;101111.16;4429584;32;20337;-65
2022/08/27 05:26:06;;;;;;;;;;;;;;;17.27;68.23;101119.53;4428224;32;19989;-67
2022/08/27 05:28:31;;;;;;;;;;;;;;;17.21;68.22;101121.44;4426988;32;19976;-64
2022/08/27 05:31:02;;;;;;;;;;;;;;;17.26;68.32;101128.53;4427517;32;19957;-68
2022/08/27 05:33:29;;;;;;;;;;;;;;;17.23;68.37;101130.28;4427040;32;20040;-67
2022/08/27 05:35:55;;;;;;;;;;;;;;;17.24;68.18;101129.00;4426597;32;19964;-66
2022/08/27 05:38:23;;;;;;;;;;;;;;;17.22;68.32;101142.94;4425790;32;20007;-64
2022/08/27 05:40:49;;;;;;;;;;;;;;;17.26;68.33;101139.91;4424813;32;19961;-67
2022/08/27 05:43:16;;;;;;;;;;;;;;;17.31;68.04;101137.22;4427923;32;20013;-64
2022/08/27 05:45:43;;;;;;;;;;;;;;;17.36;67.89;101138.63;4428028;32;19973;-64
2022/08/27 05:48:10;;;;;;;;;;;;;;;17.39;67.68;101137.69;4422440;32;20341;-66
2022/08/27 05:50:38;;;;;;;;;;;;;;;17.43;67.51;101141.22;4423566;32;19961;-67
2022/08/27 05:53:04;;;;;;;;;;;;;;;17.47;67.41;101148.31;4428434;32;19957;-65
2022/08/27 05:55:34;;;;;;;;;;;;;;;17.49;67.39;101150.69;4428168;32;20028;-66
2022/08/27 05:57:59;;;;;;;;;;;;;;;17.56;66.86;101151.16;4427884;32;20457;-65
2022/08/27 06:03:11;;;;;;;;;;;;;;;17.62;66.28;101149.22;4426205;32;20014;-67
2022/08/27 06:05:37;;;;;;;;;;;;;;;17.67;65.55;101150.62;4427524;32;19989;-67
2022/08/27 06:08:03;;;;;;;;;;;;;;;17.74;65.81;101156.78;4426167;32;20024;-65
2022/08/27 06:10:28;;;;;;;;;;;;;;;17.81;65.40;101164.22;4425047;32;20042;-68
2022/08/27 06:12:54;;;;;;;;;;;;;;;17.87;65.40;101163.09;4426511;32;20019;-64
2022/08/27 06:15:19;;;;;;;;;;;;;;;17.94;64.85;101161.19;4425885;32;19984;-64
2022/08/27 06:17:45;;;;;;;;;;;;;;;18.09;64.55;101165.72;4426653;32;19980;-69
2022/08/27 06:20:10;;;;;;;;;;;;;;;18.11;64.01;101168.87;4428409;32;19973;-66
2022/08/27 06:22:36;;;;;;;;;;;;;;;18.30;64.06;101169.59;4427729;32;19964;-65
2022/08/27 06:25:02;;;;;;;;;;;;;;;18.45;63.52;101176.19;4425249;32;20333;-66
2022/08/27 06:27:27;;;;;;;;;;;;;;;18.64;62.49;101172.78;4427369;32;20352;-68
2022/08/27 06:29:53;;;;;;;;;;;;;;;18.74;62.47;101180.00;4428053;32;20221;-67
2022/08/27 06:32:18;;;;;;;;;;;;;;;18.90;61.97;101173.09;4426610;32;19964;-68
2022/08/27 06:34:44;;;;;;;;;;;;;;;19.02;61.47;101172.81;4428466;32;19954;-66
2022/08/27 06:37:09;;;;;;;;;;;;;;;19.08;61.36;101178.66;4424848;32;19996;-67
2022/08/27 06:39:36;;;;;;;;;;;;;;;19.20;60.87;101191.88;4424086;32;20001;-66
2022/08/27 06:42:02;;;;;;;;;;;;;;;19.39;60.28;101182.72;4425909;32;20375;-68
2022/08/27 06:44:27;;;;;;;;;;;;;;;19.70;59.49;101191.62;4427942;32;19997;-68
2022/08/27 06:46:54;;;;;;;;;;;;;;;19.80;59.01;101184.53;4424463;32;20035;-65
2022/08/27 06:49:19;;;;;;;;;;;;;;;20.06;58.23;101195.38;4411785;32;19953;-69
2022/08/27 06:51:46;;;;;;;;;;;;;;;20.22;57.36;101194.91;4425064;32;20338;-66
2022/08/27 06:54:13;;;;;;;;;;;;;;;20.26;56.61;101206.91;4425865;32;20315;-65
2022/08/27 06:56:39;;;;;;;;;;;;;;;20.50;56.36;101194.09;4425403;32;20382;-65
2022/08/27 06:59:06;;;;;;;;;;;;;;;20.47;56.49;101203.66;4425311;32;20008;-66
2022/08/27 07:01:33;;;;;;;;;;;;;;;20.61;56.29;101199.16;4424903;32;19977;-66
2022/08/27 07:04:01;;;;;;;;;;;;;;;20.50;56.33;101196.94;4425802;32;20558;-69
2022/08/27 07:06:27;;;;;;;;;;;;;;;20.66;55.65;101199.25;4428097;32;20232;-69
2022/08/27 07:08:53;;;;;;;;;;;;;;;20.91;54.79;101204.31;4422611;32;20319;-68
2022/08/27 07:11:19;;;;;;;;;;;;;;;20.95;54.46;101206.97;4423112;32;20390;-65
2022/08/27 07:13:45;;;;;;;;;;;;;;;21.16;53.61;101203.63;4427135;32;19997;-66
2022/08/27 07:16:12;;;;;;;;;;;;;;;21.33;53.46;101213.19;4427068;32;19996;-67
2022/08/27 07:18:37;;;;;;;;;;;;;;;21.38;53.24;101208.84;4424815;32;20430;-66
2022/08/27 07:21:03;;;;;;;;;;;;;;;21.44;53.16;101209.69;4427251;32;19964;-65
2022/08/27 07:23:29;;;;;;;;;;;;;;;21.53;52.86;101216.06;4425371;32;20258;-69
2022/08/27 07:25:55;;;;;;;;;;;;;;;21.20;53.04;101217.75;4424714;32;19981;-66
2022/08/27 07:28:20;;;;;;;;;;;;;;;21.51;52.50;101220.72;4423761;32;19975;-65
2022/08/27 07:30:46;;;;;;;;;;;;;;;21.73;51.82;101217.31;4424159;32;20001;-66
2022/08/27 07:33:11;;;;;;;;;;;;;;;21.73;51.09;101217.31;4425533;32;20330;-70
2022/08/27 07:35:37;;;;;;;;;;;;;;;21.99;50.91;101221.03;4426191;32;19983;-69
2022/08/27 07:38:03;;;;;;;;;;;;;;;22.22;49.86;101225.66;4422465;32;20008;-69
2022/08/27 07:40:28;;;;;;;;;;;;;;;22.28;49.75;101218.69;4424527;32;19996;-70
2022/08/27 07:45:43;;;;;;;;;;;;;;;22.62;49.03;101219.75;4423935;32;20057;-66
2022/08/27 07:48:09;;;;;;;;;;;;;;;22.54;49.51;101224.38;4423954;32;20013;-69
2022/08/27 07:50:34;;;;;;;;;;;;;;;22.64;49.36;101220.06;4423219;32;20512;-68
2022/08/27 07:53:00;;;;;;;;;;;;;;;22.84;48.54;101217.84;4425399;32;20373;-70
2022/08/27 07:55:26;;;;;;;;;;;;;;;23.10;48.19;101220.59;4425531;32;20394;-67
2022/08/27 07:57:51;;;;;;;;;;;;;;;23.22;48.01;101225.06;4427683;32;19945;-66
2022/08/27 08:00:17;;;;;;;;;;;;;;;23.04;47.76;101219.78;4428173;32;19993;-69
2022/08/27 08:02:43;;;;;;;;;;;;;;;23.26;47.90;101220.69;4427828;32;19950;-66
2022/08/27 08:05:11;;;;;;;;;;;;;;;23.51;47.12;101221.84;4430783;32;20380;-67
2022/08/27 08:07:37;;;;;;;;;;;;;;;23.64;46.88;101230.78;4428097;32;20552;-69
2022/08/27 08:10:04;;;;;;;;;;;;;;;23.73;46.73;101221.91;4427883;32;20032;-66
2022/08/27 08:12:30;;;;;;;;;;;;;;;23.85;46.09;101226.41;4427063;32;20010;-67
2022/08/27 08:14:56;;;;;;;;;;;;;;;23.68;46.50;101239.16;4431678;32;20358;-68
2022/08/27 08:17:23;;;;;;;;;;;;;;;23.68;46.31;101236.28;4425423;32;20000;-70
2022/08/27 08:19:50;;;;;;;;;;;;;;;23.61;47.03;101242.50;4425847;32;19957;-69
2022/08/27 08:22:15;;;;;;;;;;;;;;;23.45;47.25;101226.78;4425486;32;20428;-70
2022/08/27 08:24:41;;;;;;;;;;;;;;;23.16;48.60;101241.50;4427604;32;19965;-67
2022/08/27 08:27:06;;;;;;;;;;;;;;;23.12;48.66;101240.94;4427280;32;19973;-66
2022/08/27 08:29:32;;;;;;;;;;;;;;;23.29;48.44;101241.88;4429387;32;19977;-66
2022/08/27 08:31:57;;;;;;;;;;;;;;;23.52;47.88;101246.41;4428464;32;19968;-67
2022/08/27 08:34:23;;;;;;;;;;;;;;;23.89;47.22;101252.00;4415995;32;19957;-71
2022/08/27 08:36:49;;;;;;;;;;;;;;;24.10;46.22;101253.38;4430530;32;20354;-67
2022/08/27 08:39:17;;;;;;;;;;;;;;;24.45;45.84;101247.94;4429557;32;20183;-66
2022/08/27 08:41:49;;;;;;;;;;;;;;;24.84;45.04;101255.25;4426513;32;19986;-68
2022/08/27 08:44:22;;;;;;;;;;;;;;;25.45;43.87;101248.56;4428808;32;20019;-69
2022/08/27 08:46:53;;;;;;;;;;;;;;;26.03;42.67;101248.03;4428011;32;19993;-67
2022/08/27 08:49:39;;;;;;;;;;;;;;;26.37;41.79;101255.16;4426149;32;19965;-66
2022/08/27 08:52:13;;;;;;;;;;;;;;;26.85;40.44;101246.59;4427746;32;20045;-67
2022/08/27 08:54:39;;;;;;;;;;;;;;;27.08;40.36;101264.50;4426608;32;19953;-69
2022/08/27 08:57:11;;;;;;;;;;;;;;;27.68;39.18;101262.25;4414958;32;20029;-66
2022/08/27 08:59:41;;;;;;;;;;;;;;;27.84;38.61;101259.12;4427802;32;19953;-67
2022/08/27 09:02:10;;;;;;;;;;;;;;;28.07;38.10;101256.72;4426941;32;20335;-67
2022/08/27 09:04:36;;;;;;;;;;;;;;;28.00;38.33;101257.34;4426702;32;19988;-67
2022/08/27 09:07:03;;;;;;;;;;;;;;;28.36;38.00;101255.75;4423618;32;20468;-69
2022/08/27 09:12:12;;;;;;;;;;;;;;;28.55;37.61;101268.09;3951549;32;15835344;-68
2022/08/27 09:14:40;;;;;;;;;;;;;;;28.55;37.61;101268.09;4432234;32;20143;-69
2022/08/27 09:17:06;;;;;;;;;;;;;;;27.98;38.39;101260.78;4434345;32;20404;-67
2022/08/27 09:19:31;;;;;;;;;;;;;;;27.96;38.65;101259.78;4432769;32;19946;-70
2022/08/27 09:22:17;;;;;;;;;;;;;;;28.11;38.58;101257.97;4432164;32;20170;-66
2022/08/27 09:25:04;;;;;;;;;;;;;;;28.29;38.29;101262.94;4434264;32;20298;-66
2022/08/27 09:27:31;;;;;;;;;;;;;;;28.53;37.88;101268.63;4432105;32;19960;-69
2022/08/27 09:29:56;;;;;;;;;;;;;;;28.53;37.95;101262.09;4433379;32;20320;-68
2022/08/27 09:32:24;;;;;;;;;;;;;;;28.64;37.70;101265.56;4433621;32;20513;-69
2022/08/27 09:34:51;;;;;;;;;;;;;;;28.03;38.72;101262.03;4431727;32;19985;-66
2022/08/27 09:37:19;;;;;;;;;;;;;;;28.31;37.58;101259.50;4432512;32;19974;-68
2022/08/27 09:42:26;;;;;;;;;;;;;;;28.91;37.09;101255.59;3955992;32;15722560;-70
2022/08/27 09:44:52;;;;;;;;;;;;;;;28.91;37.09;101255.59;4432588;32;20003;-67
2022/08/27 09:47:17;;;;;;;;;;;;;;;28.76;36.07;101258.25;4431367;32;20379;-67
2022/08/27 09:49:43;;;;;;;;;;;;;;;28.88;35.33;101259.63;4434373;32;19976;-67
2022/08/27 09:52:18;;;;;;;;;;;;;;;29.24;33.91;101262.12;4435273;32;19957;-66
2022/08/27 09:54:46;;;;;;;;;;;;;;;29.50;32.38;101262.12;4430449;32;20005;-68
2022/08/27 09:57:13;;;;;;;;;;;;;;;29.77;32.53;101257.88;4430952;32;19964;-67
2022/08/27 09:59:42;;;;;;;;;;;;;;;29.91;32.95;101256.53;4431254;32;19965;-67
2022/08/27 10:02:17;;;;;;;;;;;;;;;30.30;32.50;101268.03;4434292;32;19949;-67
2022/08/27 10:04:51;;;;;;;;;;;;;;;30.39;32.52;101261.72;4433606;32;19958;-68
2022/08/27 10:07:37;;;;;;;;;;;;;;;30.68;32.17;101261.25;4429116;32;19965;-69
2022/08/27 10:15:14;;;;;;;;;;;;;;;31.44;31.53;101263.00;3952904;32;15723301;-67
2022/08/27 10:17:59;;;;;;;;;;;;;;;31.45;31.52;101264.22;4432568;32;19961;-66
2022/08/27 10:23:09;;;;;;;;;;;;;;;31.53;31.20;101264.28;3955025;32;15723539;-67
2022/08/27 10:28:32;;;;;;;;;;;;;;;31.17;32.10;101263.41;3953872;32;15726458;-66
2022/08/27 10:31:17;;;;;;;;;;;;;;;31.17;32.10;101263.41;4417971;32;20075;-69
2022/08/27 10:36:25;;;;;;;;;;;;;;;30.93;31.76;101263.81;3955212;32;15726556;-68
2022/08/27 10:39:00;;;;;;;;;;;;;;;30.93;31.76;101263.81;4436285;32;19989;-69
2022/08/27 10:41:32;;;;;;;;;;;;;;;30.63;32.31;101256.38;4438341;32;19985;-67
2022/08/27 10:52:04;;;;;;;;;;;;;;;33.33;28.41;101253.53;3955644;32;15722195;-69
2022/08/27 10:54:35;;;;;;;;;;;;;;;33.34;28.39;101251.66;4423930;32;20052;-69
2022/08/27 10:57:15;;;;;;;;;;;;;;;33.07;28.25;101241.75;4436529;32;20025;-68
2022/08/27 10:59:50;;;;;;;;;;;;;;;33.17;27.73;101242.75;4437813;32;20406;-67
2022/08/27 11:02:35;;;;;;;;;;;;;;;33.18;27.21;101243.50;4438581;32;20016;-67
2022/08/27 11:05:08;;;;;;;;;;;;;;;33.22;27.48;101249.75;4439406;32;20429;-69
2022/08/27 11:07:37;;;;;;;;;;;;;;;33.25;27.14;101243.50;4437196;32;20007;-70
2022/08/27 11:10:06;;;;;;;;;;;;;;;33.84;26.35;101256.38;4438282;32;19998;-67
2022/08/27 11:12:35;;;;;;;;;;;;;;;34.05;26.02;101248.13;4440983;32;20740;-67
2022/08/27 11:15:04;;;;;;;;;;;;;;;34.28;24.94;101250.94;4437018;32;19949;-71
2022/08/27 11:28:05;;;;;;;;;;;;;;;33.41;26.92;101241.38;3955394;32;15723507;-68
2022/08/27 11:33:29;;;;;;;;;;;;;;;32.81;27.39;101235.53;3945908;32;15724098;-68
2022/08/27 11:38:54;;;;;;;;;;;;;;;34.29;25.33;101234.94;3954750;32;15722854;-69
2022/08/27 11:41:30;;;;;;;;;;;;;;;34.29;25.33;101234.94;4437565;32;19953;-67
2022/08/27 11:43:57;;;;;;;;;;;;;;;33.94;25.77;101231.06;4435489;32;20256;-67
2022/08/27 11:46:25;;;;;;;;;;;;;;;34.26;25.61;101233.22;4434506;32;19996;-70
2022/08/27 11:48:59;;;;;;;;;;;;;;;34.37;25.31;101226.94;4422779;32;20399;-68
2022/08/27 11:54:02;;;;;;;;;;;;;;;34.58;25.39;101223.66;3955197;32;15722582;-67
2022/08/27 11:59:25;;;;;;;;;;;;;;;34.34;25.04;101233.81;3957509;32;15723379;-69
2022/08/27 12:01:52;;;;;;;;;;;;;;;34.35;25.13;101233.34;4416405;32;20092;-66
2022/08/27 12:04:21;;;;;;;;;;;;;;;33.82;25.33;101229.94;4431059;32;19993;-67
2022/08/27 12:06:51;;;;;;;;;;;;;;;33.29;26.22;101225.59;4428096;32;19989;-67
2022/08/27 12:09:19;;;;;;;;;;;;;;;32.78;26.62;101219.22;4432995;32;19989;-68
2022/08/27 12:14:41;;;;;;;;;;;;;;;32.83;26.63;101212.41;3955427;32;15725567;-67
2022/08/27 12:17:29;;;;;;;;;;;;;;;32.83;26.63;101212.41;4433285;32;19999;-68
2022/08/27 12:25:19;;;;;;;;;;;;;;;34.03;23.98;101212.13;3954898;32;15722384;-68
2022/08/27 12:27:53;;;;;;;;;;;;;;;34.03;23.98;101212.13;4439154;32;20321;-65
2022/08/27 12:30:28;;;;;;;;;;;;;;;33.16;24.90;101206.16;4436156;32;20048;-66
2022/08/27 12:32:55;;;;;;;;;;;;;;;33.03;25.14;101209.31;4439106;32;19957;-65
2022/08/27 12:35:27;;;;;;;;;;;;;;;33.08;25.34;101214.19;4438571;32;19958;-68
2022/08/27 12:38:04;;;;;;;;;;;;;;;33.71;24.73;101209.91;4434424;32;20033;-65
2022/08/27 12:40:39;;;;;;;;;;;;;;;34.14;24.26;101215.38;4437192;32;19989;-69
2022/08/27 12:43:06;;;;;;;;;;;;;;;34.31;23.99;101208.84;4439081;32;20404;-67
2022/08/27 12:45:33;;;;;;;;;;;;;;;34.04;24.23;101213.66;4437679;32;20015;-68
2022/08/27 12:47:59;;;;;;;;;;;;;;;34.02;24.03;101213.50;4436814;32;19965;-66
2022/08/27 12:50:26;;;;;;;;;;;;;;;33.19;25.19;101207.16;4435143;32;20266;-68
2022/08/27 12:58:16;;;;;;;;;;;;;;;33.22;25.50;101209.66;3939800;32;15722591;-70
2022/08/27 13:00:58;;;;;;;;;;;;;;;33.22;25.50;101209.66;4416322;32;19989;-69
2022/08/27 13:03:44;;;;;;;;;;;;;;;33.22;24.99;101197.22;4414483;32;20004;-68
2022/08/27 13:06:19;;;;;;;;;;;;;;;34.11;23.96;101201.94;4416735;32;21203;-68
2022/08/27 13:08:45;;;;;;;;;;;;;;;33.88;23.87;101197.59;4417000;32;19995;-67
2022/08/27 13:11:17;;;;;;;;;;;;;;;34.79;22.66;101200.69;4414035;32;20005;-67
2022/08/27 13:13:42;;;;;;;;;;;;;;;35.51;22.01;101204.06;4416803;32;19950;-71
2022/08/27 13:16:08;;;;;;;;;;;;;;;36.13;21.46;101195.44;4418144;32;21021;-66
2022/08/27 13:18:35;;;;;;;;;;;;;;;36.91;20.06;101203.22;4419799;32;19993;-67
2022/08/27 13:21:03;;;;;;;;;;;;;;;37.16;19.54;101200.78;4415636;32;19959;-70
2022/08/27 13:23:30;;;;;;;;;;;;;;;37.47;19.45;101202.56;4419106;32;20289;-68
2022/08/27 13:26:05;;;;;;;;;;;;;;;38.14;18.83;101202.50;4418794;32;19961;-67
2022/08/27 13:28:32;;;;;;;;;;;;;;;37.82;18.79;101203.00;4414359;32;20012;-67
2022/08/27 13:30:59;;;;;;;;;;;;;;;36.63;19.49;101206.81;4416626;32;20026;-68
2022/08/27 13:33:26;;;;;;;;;;;;;;;35.49;20.71;101195.87;4418044;32;20572;-68
2022/08/27 13:35:52;;;;;;;;;;;;;;;35.13;21.17;101197.84;4416225;32;19953;-67
2022/08/27 13:38:18;;;;;;;;;;;;;;;35.02;21.38;101193.28;4415915;32;19968;-67
2022/08/27 13:43:37;;;;;;;;;;;;;;;37.18;19.39;101195.84;3953538;32;15724531;-65
2022/08/27 13:46:07;;;;;;;;;;;;;;;37.18;19.39;101195.84;4433700;32;19983;-69
2022/08/27 13:48:33;;;;;;;;;;;;;;;37.34;19.30;101193.44;4433514;32;19989;-68